sensor_id;sensor_type;location;lat;lon;timestamp;P1;durP1;ratioP1;P2;durP2;ratioP2
14306;SDS011;7237;49.500;11.400;2022-12-18T00:02:01;10.47;;;6.43;;
14306;SDS011;7237;49.500;11.400;2022-12-18T00:04:28;10.83;;;6.10;;
14306;SDS011;7237;49.500;11.400;2022-12-18T00:06:55;11.17;;;6.03;;
14306;SDS011;7237;49.500;11.400;2022-12-18T00:09:22;9.03;;;5.80;;
14306;SDS011;7237;49.500;11.400;2022-12-18T00:11:49;13.73;;;6.87;;
14306;SDS011;7237;49.500;11.400;2022-12-18T00:14:18;8.00;;;5.40;;
14306;SDS011;7237;49.500;11.400;2022-12-18T00:16:45;10.67;;;6.63;;
14306;SDS011;7237;49.500;11.400;2022-12-18T00:19:13;11.93;;;5.97;;
14306;SDS011;7237;49.500;11.400;2022-12-18T00:21:40;10.20;;;6.37;;
14306;SDS011;7237;49.500;11.400;2022-12-18T00:24:08;11.73;;;6.47;;
14306;SDS011;7237;49.500;11.400;2022-12-18T00:26:36;10.10;;;6.60;;
14306;SDS011;7237;49.500;11.400;2022-12-18T00:29:04;10.03;;;6.43;;
14306;SDS011;7237;49.500;11.400;2022-12-18T00:31:33;11.20;;;6.47;;
14306;SDS011;7237;49.500;11.400;2022-12-18T00:34:00;8.13;;;5.60;;
14306;SDS011;7237;49.500;11.400;2022-12-18T00:36:28;10.37;;;6.40;;
14306;SDS011;7237;49.500;11.400;2022-12-18T00:38:56;11.27;;;6.17;;
14306;SDS011;7237;49.500;11.400;2022-12-18T00:41:23;9.80;;;5.80;;
14306;SDS011;7237;49.500;11.400;2022-12-18T00:44:05;10.07;;;6.00;;
14306;SDS011;7237;49.500;11.400;2022-12-18T00:46:33;11.80;;;6.70;;
14306;SDS011;7237;49.500;11.400;2022-12-18T00:49:01;9.77;;;6.30;;
14306;SDS011;7237;49.500;11.400;2022-12-18T00:51:28;11.27;;;6.90;;
14306;SDS011;7237;49.500;11.400;2022-12-18T00:53:56;10.57;;;6.47;;
14306;SDS011;7237;49.500;11.400;2022-12-18T00:56:23;11.10;;;6.33;;
14306;SDS011;7237;49.500;11.400;2022-12-18T00:58:50;11.13;;;6.53;;
14306;SDS011;7237;49.500;11.400;2022-12-18T01:01:17;10.93;;;7.20;;
14306;SDS011;7237;49.500;11.400;2022-12-18T01:03:46;13.73;;;6.87;;
14306;SDS011;7237;49.500;11.400;2022-12-18T01:06:13;13.20;;;7.67;;
14306;SDS011;7237;49.500;11.400;2022-12-18T01:08:41;12.07;;;6.77;;
14306;SDS011;7237;49.500;11.400;2022-12-18T01:11:09;12.33;;;7.93;;
14306;SDS011;7237;49.500;11.400;2022-12-18T01:13:36;12.57;;;7.80;;
14306;SDS011;7237;49.500;11.400;2022-12-18T01:16:04;12.33;;;7.23;;
14306;SDS011;7237;49.500;11.400;2022-12-18T01:18:31;14.00;;;8.10;;
14306;SDS011;7237;49.500;11.400;2022-12-18T01:21:00;12.23;;;7.70;;
14306;SDS011;7237;49.500;11.400;2022-12-18T01:23:27;13.10;;;8.10;;
14306;SDS011;7237;49.500;11.400;2022-12-18T01:25:54;15.10;;;7.73;;
14306;SDS011;7237;49.500;11.400;2022-12-18T01:28:21;14.73;;;8.30;;
14306;SDS011;7237;49.500;11.400;2022-12-18T01:30:48;13.23;;;7.93;;
14306;SDS011;7237;49.500;11.400;2022-12-18T01:33:15;12.57;;;8.27;;
14306;SDS011;7237;49.500;11.400;2022-12-18T01:35:42;13.43;;;7.83;;
14306;SDS011;7237;49.500;11.400;2022-12-18T01:38:11;12.47;;;7.47;;
14306;SDS011;7237;49.500;11.400;2022-12-18T01:40:38;11.27;;;7.80;;
14306;SDS011;7237;49.500;11.400;2022-12-18T01:43:08;10.73;;;7.07;;
14306;SDS011;7237;49.500;11.400;2022-12-18T01:45:35;13.23;;;7.27;;
14306;SDS011;7237;49.500;11.400;2022-12-18T01:48:03;12.37;;;8.27;;
14306;SDS011;7237;49.500;11.400;2022-12-18T01:50:32;13.67;;;7.73;;
14306;SDS011;7237;49.500;11.400;2022-12-18T01:53:02;13.93;;;8.17;;
14306;SDS011;7237;49.500;11.400;2022-12-18T01:55:33;14.57;;;7.67;;
14306;SDS011;7237;49.500;11.400;2022-12-18T01:58:02;12.37;;;7.73;;
14306;SDS011;7237;49.500;11.400;2022-12-18T02:00:29;14.27;;;8.87;;
14306;SDS011;7237;49.500;11.400;2022-12-18T02:02:57;13.80;;;8.53;;
14306;SDS011;7237;49.500;11.400;2022-12-18T02:05:26;12.10;;;8.47;;
14306;SDS011;7237;49.500;11.400;2022-12-18T02:07:59;12.50;;;7.60;;
14306;SDS011;7237;49.500;11.400;2022-12-18T02:10:31;14.07;;;7.80;;
14306;SDS011;7237;49.500;11.400;2022-12-18T02:13:01;15.60;;;8.33;;
14306;SDS011;7237;49.500;11.400;2022-12-18T02:15:31;10.33;;;7.60;;
14306;SDS011;7237;49.500;11.400;2022-12-18T02:18:01;13.23;;;9.47;;
14306;SDS011;7237;49.500;11.400;2022-12-18T02:20:32;15.20;;;8.77;;
14306;SDS011;7237;49.500;11.400;2022-12-18T02:23:04;16.77;;;9.07;;
14306;SDS011;7237;49.500;11.400;2022-12-18T02:25:38;15.13;;;8.23;;
14306;SDS011;7237;49.500;11.400;2022-12-18T02:28:09;12.67;;;8.07;;
14306;SDS011;7237;49.500;11.400;2022-12-18T02:30:36;18.00;;;9.33;;
14306;SDS011;7237;49.500;11.400;2022-12-18T02:33:04;15.33;;;9.10;;
14306;SDS011;7237;49.500;11.400;2022-12-18T02:35:33;13.40;;;8.67;;
14306;SDS011;7237;49.500;11.400;2022-12-18T02:38:01;18.53;;;9.83;;
14306;SDS011;7237;49.500;11.400;2022-12-18T02:40:29;16.40;;;8.97;;
14306;SDS011;7237;49.500;11.400;2022-12-18T02:43:02;20.43;;;10.80;;
14306;SDS011;7237;49.500;11.400;2022-12-18T02:45:30;16.13;;;9.43;;
14306;SDS011;7237;49.500;11.400;2022-12-18T02:47:57;17.73;;;9.53;;
14306;SDS011;7237;49.500;11.400;2022-12-18T02:50:27;19.97;;;10.93;;
14306;SDS011;7237;49.500;11.400;2022-12-18T02:52:59;18.73;;;10.17;;
14306;SDS011;7237;49.500;11.400;2022-12-18T02:55:29;20.57;;;11.53;;
14306;SDS011;7237;49.500;11.400;2022-12-18T02:57:58;19.63;;;10.60;;
14306;SDS011;7237;49.500;11.400;2022-12-18T03:00:28;19.17;;;10.63;;
14306;SDS011;7237;49.500;11.400;2022-12-18T03:03:02;16.73;;;9.23;;
14306;SDS011;7237;49.500;11.400;2022-12-18T03:05:33;17.23;;;10.00;;
14306;SDS011;7237;49.500;11.400;2022-12-18T03:08:02;18.10;;;10.70;;
14306;SDS011;7237;49.500;11.400;2022-12-18T03:10:31;21.13;;;11.63;;
14306;SDS011;7237;49.500;11.400;2022-12-18T03:13:00;21.07;;;10.47;;
14306;SDS011;7237;49.500;11.400;2022-12-18T03:15:29;17.23;;;10.17;;
14306;SDS011;7237;49.500;11.400;2022-12-18T03:17:59;18.17;;;10.37;;
14306;SDS011;7237;49.500;11.400;2022-12-18T03:20:29;20.03;;;11.23;;
14306;SDS011;7237;49.500;11.400;2022-12-18T03:22:57;17.77;;;10.93;;
14306;SDS011;7237;49.500;11.400;2022-12-18T03:25:26;19.37;;;10.43;;
14306;SDS011;7237;49.500;11.400;2022-12-18T03:27:55;19.57;;;11.30;;
14306;SDS011;7237;49.500;11.400;2022-12-18T03:30:23;20.80;;;10.67;;
14306;SDS011;7237;49.500;11.400;2022-12-18T03:32:52;18.73;;;10.63;;
14306;SDS011;7237;49.500;11.400;2022-12-18T03:35:21;16.13;;;10.27;;
14306;SDS011;7237;49.500;11.400;2022-12-18T03:37:51;14.50;;;9.10;;
14306;SDS011;7237;49.500;11.400;2022-12-18T03:40:18;15.70;;;9.43;;
14306;SDS011;7237;49.500;11.400;2022-12-18T03:42:46;18.93;;;9.43;;
14306;SDS011;7237;49.500;11.400;2022-12-18T03:45:18;15.10;;;9.00;;
14306;SDS011;7237;49.500;11.400;2022-12-18T03:47:49;14.93;;;8.73;;
14306;SDS011;7237;49.500;11.400;2022-12-18T03:50:20;12.63;;;8.23;;
14306;SDS011;7237;49.500;11.400;2022-12-18T03:52:50;15.77;;;8.63;;
14306;SDS011;7237;49.500;11.400;2022-12-18T03:55:20;14.93;;;9.07;;
14306;SDS011;7237;49.500;11.400;2022-12-18T03:57:48;13.37;;;8.30;;
14306;SDS011;7237;49.500;11.400;2022-12-18T04:00:17;14.07;;;8.67;;
14306;SDS011;7237;49.500;11.400;2022-12-18T04:02:46;14.20;;;8.30;;
14306;SDS011;7237;49.500;11.400;2022-12-18T04:05:14;14.50;;;8.27;;
14306;SDS011;7237;49.500;11.400;2022-12-18T04:07:42;14.37;;;8.37;;
14306;SDS011;7237;49.500;11.400;2022-12-18T04:10:09;13.43;;;8.77;;
14306;SDS011;7237;49.500;11.400;2022-12-18T04:12:38;15.60;;;9.70;;
14306;SDS011;7237;49.500;11.400;2022-12-18T04:15:06;15.43;;;9.30;;
14306;SDS011;7237;49.500;11.400;2022-12-18T04:17:33;14.47;;;9.23;;
14306;SDS011;7237;49.500;11.400;2022-12-18T04:20:00;13.93;;;9.37;;
14306;SDS011;7237;49.500;11.400;2022-12-18T04:22:28;16.60;;;9.93;;
14306;SDS011;7237;49.500;11.400;2022-12-18T04:24:55;15.00;;;9.17;;
14306;SDS011;7237;49.500;11.400;2022-12-18T04:27:22;15.70;;;8.97;;
14306;SDS011;7237;49.500;11.400;2022-12-18T04:29:50;15.10;;;9.13;;
14306;SDS011;7237;49.500;11.400;2022-12-18T04:32:17;15.10;;;9.00;;
14306;SDS011;7237;49.500;11.400;2022-12-18T04:34:45;12.87;;;9.00;;
14306;SDS011;7237;49.500;11.400;2022-12-18T04:37:12;14.83;;;8.23;;
14306;SDS011;7237;49.500;11.400;2022-12-18T04:39:40;13.40;;;8.70;;
14306;SDS011;7237;49.500;11.400;2022-12-18T04:42:07;15.87;;;9.23;;
14306;SDS011;7237;49.500;11.400;2022-12-18T04:44:34;16.97;;;9.53;;
14306;SDS011;7237;49.500;11.400;2022-12-18T04:47:03;12.43;;;7.97;;
14306;SDS011;7237;49.500;11.400;2022-12-18T04:49:30;14.40;;;9.07;;
14306;SDS011;7237;49.500;11.400;2022-12-18T04:51:57;16.07;;;9.03;;
14306;SDS011;7237;49.500;11.400;2022-12-18T04:54:24;13.60;;;9.00;;
14306;SDS011;7237;49.500;11.400;2022-12-18T04:56:51;14.90;;;9.00;;
14306;SDS011;7237;49.500;11.400;2022-12-18T04:59:18;17.40;;;8.73;;
14306;SDS011;7237;49.500;11.400;2022-12-18T05:01:45;14.10;;;8.33;;
14306;SDS011;7237;49.500;11.400;2022-12-18T05:04:14;15.83;;;9.13;;
14306;SDS011;7237;49.500;11.400;2022-12-18T05:06:41;13.83;;;9.53;;
14306;SDS011;7237;49.500;11.400;2022-12-18T05:09:08;13.37;;;8.90;;
14306;SDS011;7237;49.500;11.400;2022-12-18T05:11:35;14.10;;;8.47;;
14306;SDS011;7237;49.500;11.400;2022-12-18T05:14:02;17.20;;;8.90;;
14306;SDS011;7237;49.500;11.400;2022-12-18T05:16:29;15.03;;;8.23;;
14306;SDS011;7237;49.500;11.400;2022-12-18T05:18:56;11.97;;;8.27;;
14306;SDS011;7237;49.500;11.400;2022-12-18T05:21:24;19.23;;;9.40;;
14306;SDS011;7237;49.500;11.400;2022-12-18T05:23:51;14.60;;;9.20;;
14306;SDS011;7237;49.500;11.400;2022-12-18T05:26:19;16.47;;;9.17;;
14306;SDS011;7237;49.500;11.400;2022-12-18T05:28:46;16.93;;;8.63;;
14306;SDS011;7237;49.500;11.400;2022-12-18T05:31:13;16.53;;;9.60;;
14306;SDS011;7237;49.500;11.400;2022-12-18T05:33:40;18.10;;;9.43;;
14306;SDS011;7237;49.500;11.400;2022-12-18T05:36:07;15.17;;;9.00;;
14306;SDS011;7237;49.500;11.400;2022-12-18T05:38:37;13.43;;;8.77;;
14306;SDS011;7237;49.500;11.400;2022-12-18T05:41:04;16.13;;;9.33;;
14306;SDS011;7237;49.500;11.400;2022-12-18T05:43:33;13.50;;;8.53;;
14306;SDS011;7237;49.500;11.400;2022-12-18T05:46:03;13.13;;;7.90;;
14306;SDS011;7237;49.500;11.400;2022-12-18T05:48:30;15.57;;;8.87;;
14306;SDS011;7237;49.500;11.400;2022-12-18T05:51:02;14.83;;;8.57;;
14306;SDS011;7237;49.500;11.400;2022-12-18T05:53:29;12.47;;;8.40;;
14306;SDS011;7237;49.500;11.400;2022-12-18T05:56:00;15.03;;;8.30;;
14306;SDS011;7237;49.500;11.400;2022-12-18T05:58:27;14.93;;;8.90;;
14306;SDS011;7237;49.500;11.400;2022-12-18T06:00:54;13.17;;;8.30;;
14306;SDS011;7237;49.500;11.400;2022-12-18T06:03:21;12.97;;;7.27;;
14306;SDS011;7237;49.500;11.400;2022-12-18T06:05:49;14.53;;;8.57;;
14306;SDS011;7237;49.500;11.400;2022-12-18T06:08:16;12.87;;;7.87;;
14306;SDS011;7237;49.500;11.400;2022-12-18T06:10:45;11.70;;;7.43;;
14306;SDS011;7237;49.500;11.400;2022-12-18T06:13:17;14.87;;;8.87;;
14306;SDS011;7237;49.500;11.400;2022-12-18T06:15:45;13.77;;;8.43;;
14306;SDS011;7237;49.500;11.400;2022-12-18T06:18:12;12.63;;;8.13;;
14306;SDS011;7237;49.500;11.400;2022-12-18T06:20:39;14.17;;;8.23;;
14306;SDS011;7237;49.500;11.400;2022-12-18T06:23:06;15.47;;;8.70;;
14306;SDS011;7237;49.500;11.400;2022-12-18T06:25:36;16.43;;;9.20;;
14306;SDS011;7237;49.500;11.400;2022-12-18T06:28:03;13.63;;;8.00;;
14306;SDS011;7237;49.500;11.400;2022-12-18T06:30:32;12.23;;;7.70;;
14306;SDS011;7237;49.500;11.400;2022-12-18T06:32:59;13.73;;;8.70;;
14306;SDS011;7237;49.500;11.400;2022-12-18T06:35:26;13.87;;;9.00;;
14306;SDS011;7237;49.500;11.400;2022-12-18T06:37:53;14.53;;;8.27;;
14306;SDS011;7237;49.500;11.400;2022-12-18T06:40:20;12.03;;;8.20;;
14306;SDS011;7237;49.500;11.400;2022-12-18T06:42:47;13.40;;;9.20;;
14306;SDS011;7237;49.500;11.400;2022-12-18T06:45:15;15.43;;;8.50;;
14306;SDS011;7237;49.500;11.400;2022-12-18T06:47:44;15.87;;;8.47;;
14306;SDS011;7237;49.500;11.400;2022-12-18T06:50:11;14.20;;;8.53;;
14306;SDS011;7237;49.500;11.400;2022-12-18T06:52:39;14.50;;;8.67;;
14306;SDS011;7237;49.500;11.400;2022-12-18T06:55:07;14.63;;;8.77;;
14306;SDS011;7237;49.500;11.400;2022-12-18T06:57:35;13.10;;;8.50;;
14306;SDS011;7237;49.500;11.400;2022-12-18T07:00:02;16.90;;;8.83;;
14306;SDS011;7237;49.500;11.400;2022-12-18T07:02:30;13.20;;;8.77;;
14306;SDS011;7237;49.500;11.400;2022-12-18T07:04:58;14.17;;;8.40;;
14306;SDS011;7237;49.500;11.400;2022-12-18T07:07:25;13.60;;;8.40;;
14306;SDS011;7237;49.500;11.400;2022-12-18T07:09:52;15.53;;;8.77;;
14306;SDS011;7237;49.500;11.400;2022-12-18T07:12:19;14.10;;;9.17;;
14306;SDS011;7237;49.500;11.400;2022-12-18T07:14:46;16.43;;;9.50;;
14306;SDS011;7237;49.500;11.400;2022-12-18T07:17:13;16.70;;;9.07;;
14306;SDS011;7237;49.500;11.400;2022-12-18T07:19:41;16.90;;;9.97;;
14306;SDS011;7237;49.500;11.400;2022-12-18T07:22:09;15.60;;;9.63;;
14306;SDS011;7237;49.500;11.400;2022-12-18T07:24:36;18.00;;;10.70;;
14306;SDS011;7237;49.500;11.400;2022-12-18T07:27:03;18.27;;;10.77;;
14306;SDS011;7237;49.500;11.400;2022-12-18T07:29:30;20.00;;;11.50;;
14306;SDS011;7237;49.500;11.400;2022-12-18T07:31:57;15.87;;;10.27;;
14306;SDS011;7237;49.500;11.400;2022-12-18T07:34:24;17.43;;;11.03;;
14306;SDS011;7237;49.500;11.400;2022-12-18T07:36:51;15.93;;;10.50;;
14306;SDS011;7237;49.500;11.400;2022-12-18T07:39:20;16.70;;;9.93;;
14306;SDS011;7237;49.500;11.400;2022-12-18T07:41:47;15.47;;;9.83;;
14306;SDS011;7237;49.500;11.400;2022-12-18T07:44:34;17.23;;;9.90;;
14306;SDS011;7237;49.500;11.400;2022-12-18T07:47:01;14.77;;;9.53;;
14306;SDS011;7237;49.500;11.400;2022-12-18T07:49:28;14.83;;;9.27;;
14306;SDS011;7237;49.500;11.400;2022-12-18T07:51:55;16.40;;;9.30;;
14306;SDS011;7237;49.500;11.400;2022-12-18T07:54:24;15.10;;;9.53;;
14306;SDS011;7237;49.500;11.400;2022-12-18T07:56:51;15.97;;;9.87;;
14306;SDS011;7237;49.500;11.400;2022-12-18T07:59:18;16.87;;;9.73;;
14306;SDS011;7237;49.500;11.400;2022-12-18T08:01:45;19.17;;;10.60;;
14306;SDS011;7237;49.500;11.400;2022-12-18T08:04:12;18.97;;;9.93;;
14306;SDS011;7237;49.500;11.400;2022-12-18T08:06:39;15.37;;;9.30;;
14306;SDS011;7237;49.500;11.400;2022-12-18T08:09:07;15.43;;;9.73;;
14306;SDS011;7237;49.500;11.400;2022-12-18T08:11:35;15.43;;;9.20;;
14306;SDS011;7237;49.500;11.400;2022-12-18T08:14:02;15.77;;;8.93;;
14306;SDS011;7237;49.500;11.400;2022-12-18T08:16:29;16.03;;;9.07;;
14306;SDS011;7237;49.500;11.400;2022-12-18T08:18:56;20.07;;;10.17;;
14306;SDS011;7237;49.500;11.400;2022-12-18T08:21:24;14.57;;;9.53;;
14306;SDS011;7237;49.500;11.400;2022-12-18T08:23:52;16.43;;;10.57;;
14306;SDS011;7237;49.500;11.400;2022-12-18T08:26:19;18.33;;;10.17;;
14306;SDS011;7237;49.500;11.400;2022-12-18T08:28:48;14.97;;;9.07;;
14306;SDS011;7237;49.500;11.400;2022-12-18T08:31:15;18.73;;;9.93;;
14306;SDS011;7237;49.500;11.400;2022-12-18T08:33:42;16.47;;;10.80;;
14306;SDS011;7237;49.500;11.400;2022-12-18T08:36:09;18.77;;;10.43;;
14306;SDS011;7237;49.500;11.400;2022-12-18T08:38:36;15.30;;;9.37;;
14306;SDS011;7237;49.500;11.400;2022-12-18T08:41:04;16.80;;;10.67;;
14306;SDS011;7237;49.500;11.400;2022-12-18T08:43:32;15.87;;;9.67;;
14306;SDS011;7237;49.500;11.400;2022-12-18T08:46:18;15.93;;;9.13;;
14306;SDS011;7237;49.500;11.400;2022-12-18T08:48:45;17.97;;;9.87;;
14306;SDS011;7237;49.500;11.400;2022-12-18T08:51:12;17.37;;;9.57;;
14306;SDS011;7237;49.500;11.400;2022-12-18T08:53:40;16.40;;;9.70;;
14306;SDS011;7237;49.500;11.400;2022-12-18T08:56:07;17.60;;;10.23;;
14306;SDS011;7237;49.500;11.400;2022-12-18T08:58:34;14.70;;;9.40;;
14306;SDS011;7237;49.500;11.400;2022-12-18T09:01:01;15.97;;;9.23;;
14306;SDS011;7237;49.500;11.400;2022-12-18T09:03:30;20.70;;;10.37;;
14306;SDS011;7237;49.500;11.400;2022-12-18T09:05:57;16.60;;;10.30;;
14306;SDS011;7237;49.500;11.400;2022-12-18T09:08:24;15.87;;;9.87;;
14306;SDS011;7237;49.500;11.400;2022-12-18T09:10:51;17.07;;;9.67;;
14306;SDS011;7237;49.500;11.400;2022-12-18T09:13:18;16.37;;;10.10;;
14306;SDS011;7237;49.500;11.400;2022-12-18T09:15:46;16.27;;;10.27;;
14306;SDS011;7237;49.500;11.400;2022-12-18T09:18:14;15.87;;;9.27;;
14306;SDS011;7237;49.500;11.400;2022-12-18T09:20:43;17.90;;;10.77;;
14306;SDS011;7237;49.500;11.400;2022-12-18T09:23:11;16.97;;;9.57;;
14306;SDS011;7237;49.500;11.400;2022-12-18T09:25:38;16.50;;;10.47;;
14306;SDS011;7237;49.500;11.400;2022-12-18T09:28:06;13.93;;;9.23;;
14306;SDS011;7237;49.500;11.400;2022-12-18T09:30:36;16.90;;;10.63;;
14306;SDS011;7237;49.500;11.400;2022-12-18T09:33:03;15.87;;;10.20;;
14306;SDS011;7237;49.500;11.400;2022-12-18T09:35:30;14.97;;;10.03;;
14306;SDS011;7237;49.500;11.400;2022-12-18T09:37:59;19.07;;;10.77;;
14306;SDS011;7237;49.500;11.400;2022-12-18T09:40:26;15.37;;;9.97;;
14306;SDS011;7237;49.500;11.400;2022-12-18T09:42:56;13.67;;;9.37;;
14306;SDS011;7237;49.500;11.400;2022-12-18T09:45:24;17.43;;;10.27;;
14306;SDS011;7237;49.500;11.400;2022-12-18T09:47:52;15.80;;;10.23;;
14306;SDS011;7237;49.500;11.400;2022-12-18T09:50:22;16.13;;;9.23;;
14306;SDS011;7237;49.500;11.400;2022-12-18T09:52:51;15.30;;;9.70;;
14306;SDS011;7237;49.500;11.400;2022-12-18T09:55:23;15.43;;;9.40;;
14306;SDS011;7237;49.500;11.400;2022-12-18T09:57:52;15.80;;;9.43;;
14306;SDS011;7237;49.500;11.400;2022-12-18T10:00:22;15.43;;;9.97;;
14306;SDS011;7237;49.500;11.400;2022-12-18T10:02:50;15.73;;;10.07;;
14306;SDS011;7237;49.500;11.400;2022-12-18T10:05:20;13.93;;;9.00;;
14306;SDS011;7237;49.500;11.400;2022-12-18T10:07:53;15.13;;;10.00;;
14306;SDS011;7237;49.500;11.400;2022-12-18T10:10:26;16.53;;;9.57;;
14306;SDS011;7237;49.500;11.400;2022-12-18T10:12:55;15.33;;;9.43;;
14306;SDS011;7237;49.500;11.400;2022-12-18T10:15:24;15.07;;;9.47;;
14306;SDS011;7237;49.500;11.400;2022-12-18T10:17:54;15.10;;;9.53;;
14306;SDS011;7237;49.500;11.400;2022-12-18T10:20:24;13.40;;;9.03;;
14306;SDS011;7237;49.500;11.400;2022-12-18T10:22:56;15.37;;;10.10;;
14306;SDS011;7237;49.500;11.400;2022-12-18T10:25:26;15.03;;;9.40;;
14306;SDS011;7237;49.500;11.400;2022-12-18T10:27:57;14.63;;;9.93;;
14306;SDS011;7237;49.500;11.400;2022-12-18T10:30:25;18.63;;;13.30;;
14306;SDS011;7237;49.500;11.400;2022-12-18T10:32:52;16.93;;;11.20;;
14306;SDS011;7237;49.500;11.400;2022-12-18T10:35:21;16.03;;;10.70;;
14306;SDS011;7237;49.500;11.400;2022-12-18T10:38:02;18.55;;;12.38;;
14306;SDS011;7237;49.500;11.400;2022-12-18T10:40:30;14.73;;;10.83;;
14306;SDS011;7237;49.500;11.400;2022-12-18T10:43:03;14.40;;;10.13;;
14306;SDS011;7237;49.500;11.400;2022-12-18T10:45:30;16.87;;;10.77;;
14306;SDS011;7237;49.500;11.400;2022-12-18T10:47:57;15.60;;;10.47;;
14306;SDS011;7237;49.500;11.400;2022-12-18T10:50:26;15.53;;;10.13;;
14306;SDS011;7237;49.500;11.400;2022-12-18T10:52:56;15.87;;;10.53;;
14306;SDS011;7237;49.500;11.400;2022-12-18T10:55:30;16.03;;;10.30;;
14306;SDS011;7237;49.500;11.400;2022-12-18T11:00:42;15.20;;;9.47;;
14306;SDS011;7237;49.500;11.400;2022-12-18T11:03:28;14.83;;;10.27;;
14306;SDS011;7237;49.500;11.400;2022-12-18T11:06:01;13.80;;;9.60;;
14306;SDS011;7237;49.500;11.400;2022-12-18T11:08:28;13.70;;;9.43;;
14306;SDS011;7237;49.500;11.400;2022-12-18T11:10:55;15.33;;;9.90;;
14306;SDS011;7237;49.500;11.400;2022-12-18T11:13:23;15.23;;;9.70;;
14306;SDS011;7237;49.500;11.400;2022-12-18T11:15:51;12.63;;;9.00;;
14306;SDS011;7237;49.500;11.400;2022-12-18T11:18:20;15.27;;;9.80;;
14306;SDS011;7237;49.500;11.400;2022-12-18T11:20:52;13.77;;;8.90;;
14306;SDS011;7237;49.500;11.400;2022-12-18T11:23:20;14.27;;;9.20;;
14306;SDS011;7237;49.500;11.400;2022-12-18T11:25:58;15.83;;;9.43;;
14306;SDS011;7237;49.500;11.400;2022-12-18T11:28:27;14.33;;;8.77;;
14306;SDS011;7237;49.500;11.400;2022-12-18T11:33:43;16.30;;;9.47;;
14306;SDS011;7237;49.500;11.400;2022-12-18T11:36:11;13.73;;;9.60;;
14306;SDS011;7237;49.500;11.400;2022-12-18T11:38:39;13.63;;;8.87;;
14306;SDS011;7237;49.500;11.400;2022-12-18T11:41:11;12.97;;;9.13;;
14306;SDS011;7237;49.500;11.400;2022-12-18T11:43:44;15.27;;;8.87;;
14306;SDS011;7237;49.500;11.400;2022-12-18T11:46:13;12.27;;;8.37;;
14306;SDS011;7237;49.500;11.400;2022-12-18T11:48:44;13.10;;;9.20;;
14306;SDS011;7237;49.500;11.400;2022-12-18T11:51:14;13.57;;;8.63;;
14306;SDS011;7237;49.500;11.400;2022-12-18T11:53:42;13.77;;;9.03;;
14306;SDS011;7237;49.500;11.400;2022-12-18T11:56:13;14.73;;;9.30;;
14306;SDS011;7237;49.500;11.400;2022-12-18T11:58:47;12.77;;;9.07;;
14306;SDS011;7237;49.500;11.400;2022-12-18T12:01:24;14.73;;;9.30;;
14306;SDS011;7237;49.500;11.400;2022-12-18T12:04:08;14.00;;;9.33;;
14306;SDS011;7237;49.500;11.400;2022-12-18T12:06:39;14.40;;;8.50;;
14306;SDS011;7237;49.500;11.400;2022-12-18T12:09:13;15.20;;;9.70;;
14306;SDS011;7237;49.500;11.400;2022-12-18T12:11:45;12.80;;;8.33;;
14306;SDS011;7237;49.500;11.400;2022-12-18T12:14:22;12.17;;;9.00;;
14306;SDS011;7237;49.500;11.400;2022-12-18T12:16:52;13.50;;;8.83;;
14306;SDS011;7237;49.500;11.400;2022-12-18T12:19:27;14.30;;;9.30;;
14306;SDS011;7237;49.500;11.400;2022-12-18T12:22:00;13.27;;;9.00;;
14306;SDS011;7237;49.500;11.400;2022-12-18T12:24:33;12.30;;;8.73;;
14306;SDS011;7237;49.500;11.400;2022-12-18T12:27:06;13.27;;;8.43;;
14306;SDS011;7237;49.500;11.400;2022-12-18T12:29:39;12.77;;;8.77;;
14306;SDS011;7237;49.500;11.400;2022-12-18T12:32:14;11.67;;;8.57;;
14306;SDS011;7237;49.500;11.400;2022-12-18T12:34:46;12.53;;;8.03;;
14306;SDS011;7237;49.500;11.400;2022-12-18T12:37:20;12.00;;;8.37;;
14306;SDS011;7237;49.500;11.400;2022-12-18T12:39:51;12.53;;;8.03;;
14306;SDS011;7237;49.500;11.400;2022-12-18T12:42:20;13.27;;;8.60;;
14306;SDS011;7237;49.500;11.400;2022-12-18T12:45:13;11.80;;;7.67;;
14306;SDS011;7237;49.500;11.400;2022-12-18T12:47:43;11.47;;;7.83;;
14306;SDS011;7237;49.500;11.400;2022-12-18T12:50:13;10.53;;;7.77;;
14306;SDS011;7237;49.500;11.400;2022-12-18T12:52:42;12.43;;;8.63;;
14306;SDS011;7237;49.500;11.400;2022-12-18T12:55:13;11.90;;;8.07;;
14306;SDS011;7237;49.500;11.400;2022-12-18T12:57:42;11.67;;;8.07;;
14306;SDS011;7237;49.500;11.400;2022-12-18T13:00:11;10.83;;;8.10;;
14306;SDS011;7237;49.500;11.400;2022-12-18T13:02:42;11.47;;;8.20;;
14306;SDS011;7237;49.500;11.400;2022-12-18T13:05:14;12.60;;;7.47;;
14306;SDS011;7237;49.500;11.400;2022-12-18T13:07:45;10.43;;;7.83;;
14306;SDS011;7237;49.500;11.400;2022-12-18T13:10:23;11.03;;;7.10;;
14306;SDS011;7237;49.500;11.400;2022-12-18T13:12:57;10.17;;;7.30;;
14306;SDS011;7237;49.500;11.400;2022-12-18T13:15:25;10.73;;;7.43;;
14306;SDS011;7237;49.500;11.400;2022-12-18T13:18:12;11.73;;;8.03;;
14306;SDS011;7237;49.500;11.400;2022-12-18T13:20:42;10.50;;;7.53;;
14306;SDS011;7237;49.500;11.400;2022-12-18T13:23:19;11.13;;;7.80;;
14306;SDS011;7237;49.500;11.400;2022-12-18T13:25:46;11.83;;;7.83;;
14306;SDS011;7237;49.500;11.400;2022-12-18T13:28:13;11.23;;;8.20;;
14306;SDS011;7237;49.500;11.400;2022-12-18T13:30:51;10.90;;;8.13;;
14306;SDS011;7237;49.500;11.400;2022-12-18T13:36:30;11.27;;;7.37;;
14306;SDS011;7237;49.500;11.400;2022-12-18T13:41:52;10.90;;;7.60;;
14306;SDS011;7237;49.500;11.400;2022-12-18T13:44:23;13.37;;;7.93;;
14306;SDS011;7237;49.500;11.400;2022-12-18T13:46:51;13.03;;;8.00;;
14306;SDS011;7237;49.500;11.400;2022-12-18T13:49:20;10.90;;;6.87;;
14306;SDS011;7237;49.500;11.400;2022-12-18T13:51:50;11.47;;;7.63;;
14306;SDS011;7237;49.500;11.400;2022-12-18T13:54:18;11.23;;;8.37;;
14306;SDS011;7237;49.500;11.400;2022-12-18T13:56:47;13.67;;;8.17;;
14306;SDS011;7237;49.500;11.400;2022-12-18T13:59:15;13.33;;;8.53;;
14306;SDS011;7237;49.500;11.400;2022-12-18T14:01:44;10.63;;;7.30;;
14306;SDS011;7237;49.500;11.400;2022-12-18T14:04:12;11.47;;;7.80;;
14306;SDS011;7237;49.500;11.400;2022-12-18T14:06:44;11.97;;;7.40;;
14306;SDS011;7237;49.500;11.400;2022-12-18T14:09:14;10.23;;;7.33;;
14306;SDS011;7237;49.500;11.400;2022-12-18T14:11:45;9.40;;;6.97;;
14306;SDS011;7237;49.500;11.400;2022-12-18T14:14:13;11.37;;;7.13;;
14306;SDS011;7237;49.500;11.400;2022-12-18T14:16:40;10.23;;;6.77;;
14306;SDS011;7237;49.500;11.400;2022-12-18T14:19:08;9.03;;;6.80;;
14306;SDS011;7237;49.500;11.400;2022-12-18T14:21:38;9.50;;;7.03;;
14306;SDS011;7237;49.500;11.400;2022-12-18T14:24:11;10.60;;;7.00;;
14306;SDS011;7237;49.500;11.400;2022-12-18T14:26:40;11.40;;;7.00;;
14306;SDS011;7237;49.500;11.400;2022-12-18T14:29:21;10.60;;;6.90;;
14306;SDS011;7237;49.500;11.400;2022-12-18T14:32:04;8.30;;;6.20;;
14306;SDS011;7237;49.500;11.400;2022-12-18T14:34:31;10.47;;;6.63;;
14306;SDS011;7237;49.500;11.400;2022-12-18T14:36:59;11.30;;;6.57;;
14306;SDS011;7237;49.500;11.400;2022-12-18T14:39:26;12.37;;;7.63;;
14306;SDS011;7237;49.500;11.400;2022-12-18T14:41:54;10.53;;;6.93;;
14306;SDS011;7237;49.500;11.400;2022-12-18T14:44:21;8.10;;;6.07;;
14306;SDS011;7237;49.500;11.400;2022-12-18T14:46:48;9.10;;;7.00;;
14306;SDS011;7237;49.500;11.400;2022-12-18T14:49:18;11.70;;;8.03;;
14306;SDS011;7237;49.500;11.400;2022-12-18T14:51:47;10.80;;;7.20;;
14306;SDS011;7237;49.500;11.400;2022-12-18T14:54:16;9.00;;;7.10;;
14306;SDS011;7237;49.500;11.400;2022-12-18T14:56:44;10.60;;;7.20;;